createdAt,value
2022-09-23T00:01:21.030Z,47.89
2022-09-23T00:03:49.268Z,48.16
2022-09-23T00:06:20.615Z,48.19
2022-09-23T00:08:50.573Z,48.76
2022-09-23T00:11:21.032Z,49.02
2022-09-23T00:13:53.364Z,48.44
2022-09-23T00:16:24.377Z,48.35
2022-09-23T00:18:52.082Z,48.18
2022-09-23T00:21:22.029Z,48.74
2022-09-23T00:23:49.589Z,48.89
2022-09-23T00:26:20.469Z,48.99
2022-09-23T00:28:48.377Z,49.39
2022-09-23T00:31:20.201Z,49.41
2022-09-23T00:33:47.830Z,49.84
2022-09-23T00:36:16.374Z,49.27
2022-09-23T00:38:45.232Z,49.70
2022-09-23T00:41:16.069Z,49.67
2022-09-23T00:43:47.605Z,49.59
2022-09-23T00:46:22.360Z,50.04
2022-09-23T00:48:58.212Z,50.13
2022-09-23T00:51:32.359Z,50.40
2022-09-23T00:54:01.270Z,50.31
2022-09-23T00:56:32.148Z,50.29
2022-09-23T00:59:01.191Z,50.26
2022-09-23T01:01:29.939Z,50.45
2022-09-23T01:03:58.288Z,50.33
2022-09-23T01:06:25.993Z,50.74
2022-09-23T01:08:53.567Z,51.03
2022-09-23T01:11:40.158Z,50.96
2022-09-23T01:14:37.502Z,51.08
2022-09-23T01:17:15.973Z,50.90
2022-09-23T01:20:15.131Z,51.10
2022-09-23T01:22:54.042Z,51.02
2022-09-23T01:26:01.646Z,51.16
2022-09-23T01:29:02.487Z,51.46
2022-09-23T01:31:43.187Z,51.26
2022-09-23T01:34:16.323Z,51.69
2022-09-23T01:36:51.374Z,51.68
2022-09-23T01:39:35.249Z,51.79
2022-09-23T01:42:16.947Z,51.92
2022-09-23T01:44:51.464Z,52.19
2022-09-23T01:47:27.123Z,52.38
2022-09-23T01:50:02.489Z,52.53
2022-09-23T01:52:40.136Z,52.64
2022-09-23T01:55:15.879Z,52.53
2022-09-23T01:57:49.933Z,52.55
2022-09-23T02:00:20.278Z,53.14
2022-09-23T02:02:57.690Z,53.01
2022-09-23T02:05:30.248Z,52.96
2022-09-23T02:08:03.185Z,53.20
2022-09-23T02:10:42.094Z,53.54
2022-09-23T02:13:18.013Z,53.22
2022-09-23T02:15:53.643Z,53.43
2022-09-23T02:18:26.548Z,53.85
2022-09-23T02:21:01.265Z,53.87
2022-09-23T02:23:35.988Z,53.65
2022-09-23T02:26:12.097Z,53.68
2022-09-23T02:28:52.428Z,53.64
2022-09-23T02:31:31.216Z,53.53
2022-09-23T02:34:15.039Z,53.83
2022-09-23T02:36:52.983Z,53.72
2022-09-23T02:39:25.924Z,53.92
2022-09-23T02:42:05.719Z,54.02
2022-09-23T02:44:33.297Z,54.31
2022-09-23T02:47:00.943Z,54.25
2022-09-23T02:49:31.956Z,54.51
2022-09-23T02:52:04.708Z,54.56
2022-09-23T02:54:33.700Z,54.49
2022-09-23T02:57:04.462Z,54.53
2022-09-23T02:59:34.710Z,54.60
2022-09-23T03:02:20.636Z,54.56
2022-09-23T03:05:05.626Z,54.26
2022-09-23T03:07:47.682Z,54.08
2022-09-23T03:10:25.774Z,54.09
2022-09-23T03:13:12.247Z,54.16
2022-09-23T03:15:52.096Z,53.74
2022-09-23T03:18:31.565Z,53.86
2022-09-23T03:21:07.855Z,54.09
2022-09-23T03:23:39.779Z,54.03
2022-09-23T03:26:13.695Z,53.53
2022-09-23T03:28:45.122Z,53.35
2022-09-23T03:31:14.368Z,52.98
2022-09-23T03:33:48.621Z,53.03
2022-09-23T03:36:44.356Z,52.82
2022-09-23T03:39:27.323Z,52.58
2022-09-23T03:42:00.755Z,52.50
2022-09-23T03:44:29.758Z,52.13
2022-09-23T03:47:01.189Z,52.82
2022-09-23T03:49:34.446Z,52.55
2022-09-23T03:52:03.938Z,52.81
2022-09-23T03:54:31.339Z,52.83
2022-09-23T03:57:00.260Z,52.71
2022-09-23T03:59:28.281Z,53.25
2022-09-23T04:01:55.693Z,53.12
2022-09-23T04:04:23.054Z,53.01
2022-09-23T04:06:50.302Z,52.84
2022-09-23T04:09:18.900Z,52.97
2022-09-23T04:11:46.145Z,52.83
2022-09-23T04:14:13.546Z,52.82
2022-09-23T04:16:40.865Z,53.01
2022-09-23T04:19:11.731Z,53.12
2022-09-23T04:21:40.286Z,53.17
2022-09-23T04:24:08.497Z,53.05
2022-09-23T04:26:38.356Z,53.23
2022-09-23T04:29:06.607Z,53.29
2022-09-23T04:31:34.723Z,53.34
2022-09-23T04:34:02.098Z,53.76
2022-09-23T04:36:30.366Z,53.44
2022-09-23T04:38:57.701Z,53.22
2022-09-23T04:41:24.958Z,53.08
2022-09-23T04:43:53.684Z,52.70
2022-09-23T04:46:20.992Z,52.66
2022-09-23T04:48:48.309Z,52.71
2022-09-23T04:51:19.149Z,52.53
2022-09-23T04:53:49.158Z,52.53
2022-09-23T04:56:19.856Z,52.60
2022-09-23T04:58:47.702Z,52.44
2022-09-23T05:01:19.461Z,53.00
2022-09-23T05:03:47.302Z,52.75
2022-09-23T05:06:15.308Z,52.82
2022-09-23T05:08:48.815Z,52.52
2022-09-23T05:11:17.925Z,52.98
2022-09-23T05:13:46.341Z,52.95
2022-09-23T05:16:13.807Z,53.02
2022-09-23T05:18:45.500Z,53.39
2022-09-23T05:21:16.256Z,53.28
2022-09-23T05:23:47.654Z,53.19
2022-09-23T05:26:15.699Z,53.10
2022-09-23T05:28:42.988Z,53.20
2022-09-23T05:31:19.323Z,53.56
2022-09-23T05:33:54.187Z,53.48
2022-09-23T05:36:23.148Z,53.38
2022-09-23T05:38:51.940Z,53.19
2022-09-23T05:41:25.245Z,53.34
2022-09-23T05:43:54.087Z,53.18
2022-09-23T05:46:24.826Z,53.16
2022-09-23T05:48:57.650Z,53.57
2022-09-23T05:51:31.143Z,53.63
2022-09-23T05:54:00.501Z,53.98
2022-09-23T05:56:29.035Z,54.18
2022-09-23T05:58:58.849Z,54.29
2022-09-23T06:01:28.751Z,54.26
2022-09-23T06:03:59.238Z,54.17
2022-09-23T06:06:29.979Z,54.36
2022-09-23T06:09:01.147Z,54.18
2022-09-23T06:11:31.662Z,54.35
2022-09-23T06:14:01.095Z,54.00
2022-09-23T06:16:31.308Z,54.51
2022-09-23T06:19:05.888Z,54.18
2022-09-23T06:21:36.664Z,53.95
2022-09-23T06:24:05.224Z,53.89
2022-09-23T06:26:35.459Z,53.78
2022-09-23T06:29:04.781Z,53.94
2022-09-23T06:31:33.181Z,53.89
2022-09-23T06:34:11.022Z,53.84
2022-09-23T06:36:44.557Z,54.05
2022-09-23T06:39:13.916Z,53.92
2022-09-23T06:41:41.210Z,53.76
2022-09-23T06:44:08.521Z,53.42
2022-09-23T06:46:36.851Z,53.49
2022-09-23T06:49:05.606Z,53.04
2022-09-23T06:51:33.475Z,52.97
2022-09-23T06:54:00.756Z,51.76
2022-09-23T06:56:28.022Z,50.52
2022-09-23T06:58:55.270Z,48.96
2022-09-23T07:01:23.279Z,47.73
2022-09-23T07:03:50.710Z,47.50
2022-09-23T07:06:19.963Z,46.27
2022-09-23T07:08:48.158Z,44.64
2022-09-23T07:11:16.279Z,44.38
2022-09-23T07:13:43.621Z,44.67
2022-09-23T07:16:12.078Z,44.76
2022-09-23T07:18:41.037Z,44.77
2022-09-23T07:21:11.499Z,45.22
2022-09-23T07:23:40.489Z,44.98
2022-09-23T07:26:08.655Z,45.06
2022-09-23T07:28:37.199Z,44.67
2022-09-23T07:31:07.721Z,44.05
2022-09-23T07:33:36.080Z,44.53
2022-09-23T07:36:09.160Z,43.92
2022-09-23T07:38:41.522Z,44.29
2022-09-23T07:41:16.981Z,44.13
2022-09-23T07:43:44.969Z,43.96
2022-09-23T07:46:17.567Z,44.23
2022-09-23T07:48:46.087Z,44.44
2022-09-23T07:51:18.170Z,44.10
2022-09-23T07:53:48.392Z,44.44
2022-09-23T07:56:19.349Z,43.94
2022-09-23T07:59:00.279Z,44.08
2022-09-23T08:04:26.779Z,44.50
2022-09-23T08:06:57.858Z,44.48
2022-09-23T08:09:29.018Z,43.65
2022-09-23T08:11:58.177Z,43.14
2022-09-23T08:14:26.058Z,42.97
2022-09-23T08:16:54.126Z,41.82
2022-09-23T08:19:21.635Z,40.08
2022-09-23T08:21:49.857Z,38.88
2022-09-23T08:24:20.823Z,37.59
2022-09-23T08:26:49.005Z,36.13
2022-09-23T08:29:20.954Z,35.60
2022-09-23T08:31:49.713Z,33.93
2022-09-23T08:34:18.463Z,33.70
2022-09-23T08:36:46.734Z,32.96
2022-09-23T08:39:16.338Z,33.07
2022-09-23T08:41:59.249Z,31.16
2022-09-23T08:44:43.455Z,30.14
2022-09-23T08:47:21.402Z,30.86
2022-09-23T08:50:00.486Z,30.24
2022-09-23T08:52:35.771Z,29.91
2022-09-23T08:55:29.928Z,30.40
2022-09-23T08:58:35.153Z,30.27
2022-09-23T09:01:16.383Z,29.38
2022-09-23T09:03:50.516Z,29.42
2022-09-23T09:06:28.328Z,29.45
2022-09-23T09:09:00.996Z,28.69
2022-09-23T09:11:35.950Z,28.36
2022-09-23T09:14:18.130Z,27.13
2022-09-23T09:17:00.440Z,27.85
2022-09-23T09:19:52.910Z,27.86
2022-09-23T09:22:44.678Z,27.48
2022-09-23T09:25:36.356Z,26.73
2022-09-23T09:28:14.349Z,27.41
2022-09-23T09:30:45.180Z,28.16
2022-09-23T09:33:24.102Z,28.46
2022-09-23T09:36:08.835Z,27.85
2022-09-23T09:38:36.886Z,27.27
2022-09-23T09:41:15.469Z,26.89
2022-09-23T09:43:52.408Z,26.10
2022-09-23T09:46:49.498Z,26.27
2022-09-23T09:49:38.091Z,27.07
2022-09-23T09:52:24.267Z,26.91
2022-09-23T09:54:52.595Z,27.03
2022-09-23T09:57:36.854Z,27.71
2022-09-23T10:00:41.809Z,28.63
2022-09-23T10:03:35.307Z,29.31
2022-09-23T10:06:22.563Z,30.22
2022-09-23T10:09:22.030Z,30.35
2022-09-23T10:12:13.084Z,30.59
2022-09-23T10:14:40.401Z,30.45
2022-09-23T10:17:16.934Z,30.76
2022-09-23T10:19:48.641Z,30.83
2022-09-23T10:22:30.029Z,31.47
2022-09-23T10:25:03.841Z,31.51
2022-09-23T10:27:34.698Z,31.95
2022-09-23T10:30:05.621Z,32.17
2022-09-23T10:32:37.338Z,31.50
2022-09-23T10:35:16.614Z,31.49
2022-09-23T10:37:49.971Z,31.78
2022-09-23T10:40:45.977Z,32.10
2022-09-23T10:43:53.222Z,32.34
2022-09-23T10:46:41.252Z,33.21
2022-09-23T10:49:57.424Z,33.65
2022-09-23T10:53:02.452Z,33.95
2022-09-23T10:55:52.834Z,34.04
2022-09-23T10:59:29.018Z,33.77
2022-09-23T11:02:21.618Z,33.83
2022-09-23T11:05:36.012Z,34.07
2022-09-23T11:08:33.844Z,33.62
2022-09-23T11:11:21.873Z,33.53
2022-09-23T11:14:16.991Z,33.55
2022-09-23T11:17:13.519Z,33.32
2022-09-23T11:20:17.933Z,33.76
2022-09-23T11:23:09.612Z,33.78
2022-09-23T11:25:52.006Z,33.75
2022-09-23T11:29:10.137Z,33.75
2022-09-23T11:31:59.285Z,32.84
2022-09-23T11:35:02.445Z,32.79
2022-09-23T11:37:37.153Z,32.02
2022-09-23T11:40:15.627Z,31.90
2022-09-23T11:42:55.227Z,31.97
2022-09-23T11:45:31.851Z,32.91
2022-09-23T11:48:05.737Z,32.55
2022-09-23T11:50:39.970Z,32.56
2022-09-23T11:53:18.267Z,33.08
2022-09-23T11:55:57.718Z,33.07
2022-09-23T11:58:35.117Z,33.80
2022-09-23T12:01:12.221Z,33.31
2022-09-23T12:03:50.878Z,33.17
2022-09-23T12:06:22.296Z,33.65
2022-09-23T12:08:57.722Z,33.16
2022-09-23T12:11:36.031Z,33.25
2022-09-23T12:14:17.818Z,33.73
2022-09-23T12:17:06.106Z,33.21
2022-09-23T12:20:23.077Z,33.79
2022-09-23T12:23:12.080Z,33.56
2022-09-23T12:25:46.846Z,33.97
2022-09-23T12:28:23.412Z,34.36
2022-09-23T12:30:57.430Z,34.39
2022-09-23T12:33:28.360Z,34.40
2022-09-23T12:36:04.853Z,34.34
2022-09-23T12:38:37.604Z,34.56
2022-09-23T12:41:27.098Z,34.28
2022-09-23T12:44:15.059Z,34.97
2022-09-23T12:46:45.865Z,34.96
2022-09-23T12:49:28.193Z,34.63
2022-09-23T12:52:25.793Z,34.85
2022-09-23T12:54:58.175Z,35.04
2022-09-23T12:57:41.905Z,34.72
2022-09-23T13:00:24.214Z,35.12
2022-09-23T13:03:18.512Z,35.14
2022-09-23T13:06:10.441Z,35.20
2022-09-23T13:08:40.411Z,35.25
2022-09-23T13:11:21.969Z,35.24
2022-09-23T13:13:51.508Z,35.54
2022-09-23T13:16:26.526Z,35.03
2022-09-23T13:18:57.708Z,34.81
2022-09-23T13:22:01.831Z,34.99
2022-09-23T13:24:40.745Z,34.47
2022-09-23T13:27:21.954Z,34.32
2022-09-23T13:29:58.406Z,34.17
2022-09-23T13:32:31.749Z,34.66
2022-09-23T13:35:05.425Z,34.77
2022-09-23T13:37:46.171Z,34.95
2022-09-23T13:40:24.144Z,35.12
2022-09-23T13:42:58.519Z,35.40
2022-09-23T13:45:28.258Z,35.44
2022-09-23T13:48:03.346Z,35.53
2022-09-23T13:50:35.228Z,35.54
2022-09-23T13:53:11.423Z,35.63
2022-09-23T13:55:41.031Z,35.98
2022-09-23T13:58:18.835Z,35.85
2022-09-23T14:00:47.477Z,35.96
2022-09-23T14:03:37.098Z,35.60
2022-09-23T14:06:11.264Z,35.82
2022-09-23T14:08:43.982Z,36.04
2022-09-23T14:11:16.260Z,36.23
2022-09-23T14:13:46.511Z,36.11
2022-09-23T14:16:16.258Z,36.51
2022-09-23T14:18:47.060Z,36.53
2022-09-23T14:21:34.708Z,36.52
2022-09-23T14:24:17.776Z,36.76
2022-09-23T14:26:48.442Z,36.89
2022-09-23T14:29:19.252Z,36.79
2022-09-23T14:31:57.157Z,36.76
2022-09-23T14:34:46.964Z,37.13
2022-09-23T14:37:47.518Z,37.00
2022-09-23T14:40:18.734Z,36.89
2022-09-23T14:42:49.911Z,37.11
2022-09-23T14:45:21.180Z,37.30
2022-09-23T14:47:53.726Z,37.62
2022-09-23T14:50:37.812Z,37.54
2022-09-23T14:53:35.361Z,37.65
2022-09-23T14:56:16.782Z,37.86
2022-09-23T14:58:53.808Z,37.85
2022-09-23T15:01:35.685Z,37.99
2022-09-23T15:04:17.373Z,38.15
2022-09-23T15:06:53.659Z,38.38
2022-09-23T15:09:26.649Z,38.96
2022-09-23T15:11:59.860Z,39.41
2022-09-23T15:14:38.194Z,39.82
2022-09-23T15:17:30.483Z,39.60
2022-09-23T15:20:02.448Z,39.46
2022-09-23T15:22:30.009Z,39.68
2022-09-23T15:25:18.385Z,39.92
2022-09-23T15:27:58.525Z,39.79
2022-09-23T15:30:26.580Z,39.78
2022-09-23T15:32:54.249Z,39.85
2022-09-23T15:35:27.437Z,39.65
2022-09-23T15:37:58.833Z,40.37
2022-09-23T15:40:31.115Z,40.60
2022-09-23T15:43:01.279Z,41.40
2022-09-23T15:45:33.374Z,41.12
2022-09-23T15:48:08.451Z,41.53
2022-09-23T15:50:37.180Z,41.65
2022-09-23T15:53:06.713Z,41.42
2022-09-23T15:55:35.381Z,41.66
2022-09-23T15:58:02.673Z,41.11
2022-09-23T16:00:30.077Z,41.06
2022-09-23T16:02:57.313Z,41.03
2022-09-23T16:05:34.840Z,40.70
2022-09-23T16:08:08.494Z,40.79
2022-09-23T16:10:38.924Z,40.87
2022-09-23T16:13:11.603Z,40.58
2022-09-23T16:15:39.899Z,40.69
2022-09-23T16:18:08.567Z,40.76
2022-09-23T16:20:38.496Z,41.30
2022-09-23T16:23:10.899Z,41.22
2022-09-23T16:25:40.002Z,41.34
2022-09-23T16:28:07.286Z,41.41
2022-09-23T16:30:35.145Z,41.79
2022-09-23T16:33:02.489Z,42.05
2022-09-23T16:35:33.638Z,42.52
2022-09-23T16:38:00.954Z,42.67
2022-09-23T16:40:28.357Z,42.75
2022-09-23T16:42:58.399Z,43.16
2022-09-23T16:45:25.784Z,43.43
2022-09-23T16:47:54.266Z,43.65
2022-09-23T16:50:24.014Z,43.60
2022-09-23T16:52:56.049Z,43.73
2022-09-23T16:55:25.748Z,44.12
2022-09-23T16:57:53.963Z,44.26
2022-09-23T17:00:42.461Z,43.62
2022-09-23T17:03:31.724Z,43.97
2022-09-23T17:06:00.702Z,44.27
2022-09-23T17:08:30.115Z,45.07
2022-09-23T17:10:59.612Z,45.41
2022-09-23T17:13:28.416Z,45.47
2022-09-23T17:15:57.187Z,45.63
2022-09-23T17:18:25.236Z,45.54
2022-09-23T17:21:01.108Z,45.87
2022-09-23T17:23:31.429Z,46.73
2022-09-23T17:25:58.990Z,47.04
2022-09-23T17:28:26.331Z,47.54
2022-09-23T17:30:58.872Z,47.54
2022-09-23T17:33:28.155Z,48.08
2022-09-23T17:35:56.872Z,48.39
2022-09-23T17:38:28.870Z,48.41
2022-09-23T17:41:02.011Z,48.17
2022-09-23T17:43:30.163Z,48.69
2022-09-23T17:46:06.302Z,48.40
2022-09-23T17:48:36.172Z,48.66
2022-09-23T17:51:06.643Z,48.58
2022-09-23T17:53:36.957Z,49.09
2022-09-23T17:56:06.809Z,48.88
2022-09-23T17:58:37.382Z,48.82
2022-09-23T18:01:10.878Z,49.05
2022-09-23T18:03:39.457Z,48.66
2022-09-23T18:06:09.480Z,48.29
2022-09-23T18:08:37.624Z,48.89
2022-09-23T18:11:13.356Z,49.10
2022-09-23T18:13:40.885Z,48.95
2022-09-23T18:16:09.759Z,49.08
2022-09-23T18:18:37.108Z,49.08
2022-09-23T18:21:06.728Z,49.74
2022-09-23T18:23:34.045Z,49.85
2022-09-23T18:26:01.290Z,50.05
2022-09-23T18:28:34.015Z,49.21
2022-09-23T18:31:02.120Z,48.77
2022-09-23T18:33:30.758Z,48.99
2022-09-23T18:36:01.134Z,49.06
2022-09-23T18:38:28.431Z,49.26
2022-09-23T18:40:58.025Z,49.60
2022-09-23T18:43:29.534Z,49.06
2022-09-23T18:46:02.468Z,49.41
2022-09-23T18:48:53.083Z,49.34
2022-09-23T18:51:25.383Z,49.27
2022-09-23T18:53:57.572Z,49.45
2022-09-23T18:56:27.835Z,49.16
2022-09-23T18:58:56.049Z,49.15
2022-09-23T19:01:25.018Z,49.48
2022-09-23T19:03:57.523Z,49.48
2022-09-23T19:06:26.111Z,49.50
2022-09-23T19:08:55.562Z,48.83
2022-09-23T19:11:24.224Z,49.26
2022-09-23T19:13:56.345Z,49.36
2022-09-23T19:16:25.060Z,49.39
2022-09-23T19:18:52.762Z,49.50
2022-09-23T19:21:23.072Z,49.53
2022-09-23T19:23:53.130Z,49.44
2022-09-23T19:26:24.694Z,49.50
2022-09-23T19:28:54.881Z,49.85
2022-09-23T19:31:26.357Z,50.05
2022-09-23T19:33:56.673Z,49.83
2022-09-23T19:36:28.336Z,49.83
2022-09-23T19:38:58.123Z,50.74
2022-09-23T19:41:28.161Z,50.69
2022-09-23T19:43:58.639Z,50.18
2022-09-23T19:46:25.984Z,50.71
2022-09-23T19:48:53.307Z,51.04
2022-09-23T19:51:20.561Z,50.58
2022-09-23T19:53:49.421Z,51.14
2022-09-23T19:56:17.948Z,50.85
2022-09-23T19:58:47.260Z,50.71
2022-09-23T20:01:15.181Z,50.49
2022-09-23T20:03:42.939Z,51.09
2022-09-23T20:06:10.444Z,50.85
2022-09-23T20:08:38.231Z,50.62
2022-09-23T20:11:12.505Z,50.82
2022-09-23T20:13:41.274Z,50.69
2022-09-23T20:16:12.098Z,51.12
2022-09-23T20:18:39.919Z,50.92
2022-09-23T20:21:10.722Z,50.81
2022-09-23T20:23:38.103Z,50.83
2022-09-23T20:26:25.644Z,50.28
2022-09-23T20:28:54.715Z,50.73
2022-09-23T20:31:23.788Z,50.65
2022-09-23T20:33:53.649Z,51.03
2022-09-23T20:36:21.465Z,50.82
2022-09-23T20:38:53.321Z,50.27
2022-09-23T20:41:21.196Z,50.68
2022-09-23T20:43:51.817Z,50.82
2022-09-23T20:46:23.439Z,50.50
2022-09-23T20:48:50.895Z,50.60
2022-09-23T20:51:18.267Z,50.94
2022-09-23T20:53:48.352Z,50.33
2022-09-23T20:56:16.484Z,50.51
2022-09-23T20:58:44.543Z,50.52
2022-09-23T21:01:12.290Z,50.14
2022-09-23T21:03:43.719Z,50.05
2022-09-23T21:06:14.243Z,50.84
2022-09-23T21:08:44.372Z,51.21
2022-09-23T21:11:14.922Z,50.76
2022-09-23T21:13:47.102Z,51.36
2022-09-23T21:16:17.066Z,51.25
2022-09-23T21:18:46.776Z,51.76
2022-09-23T21:21:15.104Z,51.78
2022-09-23T21:23:43.868Z,51.52
2022-09-23T21:26:13.687Z,51.41
2022-09-23T21:28:42.929Z,51.59
2022-09-23T21:31:13.342Z,52.07
2022-09-23T21:33:40.691Z,51.33
2022-09-23T21:36:10.116Z,51.75
2022-09-23T21:38:38.282Z,51.33
2022-09-23T21:41:10.004Z,51.58
2022-09-23T21:43:40.072Z,51.84
2022-09-23T21:46:10.690Z,51.89
2022-09-23T21:48:43.028Z,51.64
2022-09-23T21:51:14.403Z,51.99
2022-09-23T21:53:43.998Z,52.32
2022-09-23T21:56:20.258Z,52.41
2022-09-23T21:58:48.849Z,52.72
2022-09-23T22:01:19.308Z,52.34
2022-09-23T22:03:51.344Z,52.32
2022-09-23T22:06:22.094Z,52.17
2022-09-23T22:08:53.159Z,52.04
2022-09-23T22:11:41.986Z,52.52
2022-09-23T22:14:12.644Z,53.04
2022-09-23T22:16:41.548Z,52.95
2022-09-23T22:19:11.191Z,53.49
2022-09-23T22:21:42.796Z,53.31
2022-09-23T22:24:12.479Z,53.04
2022-09-23T22:26:42.621Z,53.60
2022-09-23T22:29:31.921Z,53.46
2022-09-23T22:32:18.400Z,54.23
2022-09-23T22:34:52.593Z,54.27
2022-09-23T22:37:25.849Z,54.15
2022-09-23T22:39:53.721Z,54.58
2022-09-23T22:42:22.239Z,54.66
2022-09-23T22:44:50.261Z,54.48
2022-09-23T22:47:19.205Z,54.86
2022-09-23T22:49:46.654Z,55.20
2022-09-23T22:52:16.077Z,54.89
2022-09-23T22:54:44.842Z,55.23
2022-09-23T22:57:12.098Z,55.38
2022-09-23T22:59:39.382Z,55.13
2022-09-23T23:02:08.155Z,54.91
2022-09-23T23:04:36.529Z,55.38
2022-09-23T23:07:04.278Z,55.46
2022-09-23T23:09:31.554Z,56.06
2022-09-23T23:12:00.344Z,56.10
2022-09-23T23:14:28.036Z,56.50
2022-09-23T23:16:55.543Z,56.84
2022-09-23T23:19:23.582Z,56.85
2022-09-23T23:21:51.414Z,56.83
2022-09-23T23:24:21.781Z,56.99
2022-09-23T23:26:49.877Z,56.60
2022-09-23T23:29:21.652Z,56.48
2022-09-23T23:31:49.469Z,56.67
2022-09-23T23:34:19.777Z,56.42
2022-09-23T23:36:54.605Z,56.08
2022-09-23T23:39:23.945Z,56.17
2022-09-23T23:41:53.290Z,56.12
2022-09-23T23:44:23.850Z,56.70
2022-09-23T23:46:52.311Z,56.19
2022-09-23T23:49:20.235Z,56.65
2022-09-23T23:51:48.014Z,56.83
2022-09-23T23:54:16.783Z,56.86
2022-09-23T23:56:44.629Z,56.82
2022-09-23T23:59:12.266Z,57.10
